sensor_id;sensor_type;location;lat;lon;timestamp;temperature;humidity
19039;DHT22;9652;49.014;12.052;2024-02-21T00:01:39;10.90;63.90
19039;DHT22;9652;49.014;12.052;2024-02-21T00:04:06;10.90;63.90
19039;DHT22;9652;49.014;12.052;2024-02-21T00:06:33;10.90;63.90
19039;DHT22;9652;49.014;12.052;2024-02-21T00:09:00;10.90;64.00
19039;DHT22;9652;49.014;12.052;2024-02-21T00:11:28;10.90;64.00
19039;DHT22;9652;49.014;12.052;2024-02-21T00:13:55;11.00;64.10
19039;DHT22;9652;49.014;12.052;2024-02-21T00:16:22;11.00;64.10
19039;DHT22;9652;49.014;12.052;2024-02-21T00:18:51;11.00;63.90
19039;DHT22;9652;49.014;12.052;2024-02-21T00:21:18;11.00;63.80
19039;DHT22;9652;49.014;12.052;2024-02-21T00:23:45;11.00;63.80
19039;DHT22;9652;49.014;12.052;2024-02-21T00:26:12;11.00;63.90
19039;DHT22;9652;49.014;12.052;2024-02-21T00:28:39;11.00;63.80
19039;DHT22;9652;49.014;12.052;2024-02-21T00:31:06;11.00;63.80
19039;DHT22;9652;49.014;12.052;2024-02-21T00:33:33;11.00;63.80
19039;DHT22;9652;49.014;12.052;2024-02-21T00:36:02;11.00;63.80
19039;DHT22;9652;49.014;12.052;2024-02-21T00:38:30;11.00;63.80
19039;DHT22;9652;49.014;12.052;2024-02-21T00:40:57;11.00;63.80
19039;DHT22;9652;49.014;12.052;2024-02-21T00:43:24;11.00;63.80
19039;DHT22;9652;49.014;12.052;2024-02-21T00:45:51;11.00;63.80
19039;DHT22;9652;49.014;12.052;2024-02-21T00:48:18;11.00;63.90
19039;DHT22;9652;49.014;12.052;2024-02-21T00:50:45;11.00;63.90
19039;DHT22;9652;49.014;12.052;2024-02-21T00:53:14;11.00;63.90
19039;DHT22;9652;49.014;12.052;2024-02-21T00:55:41;11.00;63.80
19039;DHT22;9652;49.014;12.052;2024-02-21T00:58:08;10.90;63.70
19039;DHT22;9652;49.014;12.052;2024-02-21T01:00:36;10.90;63.60
19039;DHT22;9652;49.014;12.052;2024-02-21T01:03:03;10.90;63.50
19039;DHT22;9652;49.014;12.052;2024-02-21T01:05:30;10.90;63.50
19039;DHT22;9652;49.014;12.052;2024-02-21T01:07:57;10.90;63.50
19039;DHT22;9652;49.014;12.052;2024-02-21T01:10:26;10.80;63.40
19039;DHT22;9652;49.014;12.052;2024-02-21T01:12:53;10.80;63.50
19039;DHT22;9652;49.014;12.052;2024-02-21T01:15:20;10.80;63.60
19039;DHT22;9652;49.014;12.052;2024-02-21T01:17:47;10.80;63.80
19039;DHT22;9652;49.014;12.052;2024-02-21T01:20:15;10.80;63.90
19039;DHT22;9652;49.014;12.052;2024-02-21T01:22:43;10.70;64.00
19039;DHT22;9652;49.014;12.052;2024-02-21T01:25:10;10.70;64.10
19039;DHT22;9652;49.014;12.052;2024-02-21T01:27:38;10.70;64.20
19039;DHT22;9652;49.014;12.052;2024-02-21T01:30:06;10.70;64.40
19039;DHT22;9652;49.014;12.052;2024-02-21T01:32:36;10.70;64.40
19039;DHT22;9652;49.014;12.052;2024-02-21T01:35:03;10.70;64.50
19039;DHT22;9652;49.014;12.052;2024-02-21T01:37:31;10.70;64.50
19039;DHT22;9652;49.014;12.052;2024-02-21T01:39:58;10.70;64.50
19039;DHT22;9652;49.014;12.052;2024-02-21T01:42:25;10.60;64.60
19039;DHT22;9652;49.014;12.052;2024-02-21T01:44:53;10.60;65.30
19039;DHT22;9652;49.014;12.052;2024-02-21T01:47:21;10.60;64.60
19039;DHT22;9652;49.014;12.052;2024-02-21T01:49:48;10.60;64.70
19039;DHT22;9652;49.014;12.052;2024-02-21T01:52:16;10.70;64.80
19039;DHT22;9652;49.014;12.052;2024-02-21T01:54:44;10.50;64.80
19039;DHT22;9652;49.014;12.052;2024-02-21T01:57:14;10.60;64.90
19039;DHT22;9652;49.014;12.052;2024-02-21T01:59:41;10.60;65.00
19039;DHT22;9652;49.014;12.052;2024-02-21T02:02:10;10.50;65.00
19039;DHT22;9652;49.014;12.052;2024-02-21T02:04:38;10.50;65.10
19039;DHT22;9652;49.014;12.052;2024-02-21T02:07:07;10.50;65.10
19039;DHT22;9652;49.014;12.052;2024-02-21T02:09:34;10.50;65.30
19039;DHT22;9652;49.014;12.052;2024-02-21T02:12:02;10.50;65.30
19039;DHT22;9652;49.014;12.052;2024-02-21T02:14:29;10.50;65.40
19039;DHT22;9652;49.014;12.052;2024-02-21T02:16:57;10.50;65.50
19039;DHT22;9652;49.014;12.052;2024-02-21T02:19:25;10.50;65.50
19039;DHT22;9652;49.014;12.052;2024-02-21T02:21:56;10.50;65.60
19039;DHT22;9652;49.014;12.052;2024-02-21T02:24:28;10.50;65.60
19039;DHT22;9652;49.014;12.052;2024-02-21T02:26:55;10.50;65.60
19039;DHT22;9652;49.014;12.052;2024-02-21T02:29:22;10.50;65.60
19039;DHT22;9652;49.014;12.052;2024-02-21T02:31:49;10.50;65.60
19039;DHT22;9652;49.014;12.052;2024-02-21T02:34:16;10.50;65.80
19039;DHT22;9652;49.014;12.052;2024-02-21T02:36:43;10.50;65.70
19039;DHT22;9652;49.014;12.052;2024-02-21T02:39:10;10.50;65.70
19039;DHT22;9652;49.014;12.052;2024-02-21T02:41:39;10.50;65.70
19039;DHT22;9652;49.014;12.052;2024-02-21T02:44:06;10.50;65.70
19039;DHT22;9652;49.014;12.052;2024-02-21T02:46:33;10.50;65.70
19039;DHT22;9652;49.014;12.052;2024-02-21T02:49:00;10.50;65.70
19039;DHT22;9652;49.014;12.052;2024-02-21T02:51:28;10.50;65.70
19039;DHT22;9652;49.014;12.052;2024-02-21T02:53:55;10.50;65.70
19039;DHT22;9652;49.014;12.052;2024-02-21T02:56:23;10.50;65.60
19039;DHT22;9652;49.014;12.052;2024-02-21T02:58:51;10.50;65.60
19039;DHT22;9652;49.014;12.052;2024-02-21T03:01:18;10.60;65.70
19039;DHT22;9652;49.014;12.052;2024-02-21T03:03:45;10.50;65.70
19039;DHT22;9652;49.014;12.052;2024-02-21T03:06:13;10.50;65.80
19039;DHT22;9652;49.014;12.052;2024-02-21T03:08:40;10.50;65.80
19039;DHT22;9652;49.014;12.052;2024-02-21T03:11:08;10.50;65.70
19039;DHT22;9652;49.014;12.052;2024-02-21T03:13:36;10.50;65.70
19039;DHT22;9652;49.014;12.052;2024-02-21T03:16:05;10.60;65.80
19039;DHT22;9652;49.014;12.052;2024-02-21T03:18:32;10.50;65.80
19039;DHT22;9652;49.014;12.052;2024-02-21T03:20:59;10.50;65.80
19039;DHT22;9652;49.014;12.052;2024-02-21T03:23:27;10.60;65.80
19039;DHT22;9652;49.014;12.052;2024-02-21T03:25:54;10.50;66.60
19039;DHT22;9652;49.014;12.052;2024-02-21T03:28:21;10.60;65.80
19039;DHT22;9652;49.014;12.052;2024-02-21T03:30:48;10.60;65.80
19039;DHT22;9652;49.014;12.052;2024-02-21T03:33:16;10.60;65.80
19039;DHT22;9652;49.014;12.052;2024-02-21T03:35:45;10.60;65.70
19039;DHT22;9652;49.014;12.052;2024-02-21T03:38:12;10.60;65.60
19039;DHT22;9652;49.014;12.052;2024-02-21T03:40:39;10.60;65.50
19039;DHT22;9652;49.014;12.052;2024-02-21T03:43:06;10.50;65.50
19039;DHT22;9652;49.014;12.052;2024-02-21T03:45:34;10.60;65.50
19039;DHT22;9652;49.014;12.052;2024-02-21T03:48:01;10.60;65.50
19039;DHT22;9652;49.014;12.052;2024-02-21T03:50:29;10.50;65.40
19039;DHT22;9652;49.014;12.052;2024-02-21T03:52:56;10.50;65.40
19039;DHT22;9652;49.014;12.052;2024-02-21T03:55:23;10.50;65.40
19039;DHT22;9652;49.014;12.052;2024-02-21T03:57:50;10.50;65.80
19039;DHT22;9652;49.014;12.052;2024-02-21T04:00:18;10.50;65.60
19039;DHT22;9652;49.014;12.052;2024-02-21T04:02:45;10.40;65.50
19039;DHT22;9652;49.014;12.052;2024-02-21T04:05:15;10.40;65.50
19039;DHT22;9652;49.014;12.052;2024-02-21T04:07:44;10.50;65.70
19039;DHT22;9652;49.014;12.052;2024-02-21T04:10:12;10.50;65.80
19039;DHT22;9652;49.014;12.052;2024-02-21T04:12:39;10.40;65.70
19039;DHT22;9652;49.014;12.052;2024-02-21T04:15:06;10.40;65.70
19039;DHT22;9652;49.014;12.052;2024-02-21T04:17:34;10.50;66.00
19039;DHT22;9652;49.014;12.052;2024-02-21T04:20:04;10.40;65.90
19039;DHT22;9652;49.014;12.052;2024-02-21T04:22:33;10.50;65.90
19039;DHT22;9652;49.014;12.052;2024-02-21T04:25:02;10.50;65.90
19039;DHT22;9652;49.014;12.052;2024-02-21T04:27:29;10.50;65.80
19039;DHT22;9652;49.014;12.052;2024-02-21T04:29:56;10.50;65.80
19039;DHT22;9652;49.014;12.052;2024-02-21T04:32:23;10.50;65.80
19039;DHT22;9652;49.014;12.052;2024-02-21T04:34:52;10.50;65.80
19039;DHT22;9652;49.014;12.052;2024-02-21T04:37:20;10.50;65.90
19039;DHT22;9652;49.014;12.052;2024-02-21T04:39:48;10.50;65.90
19039;DHT22;9652;49.014;12.052;2024-02-21T04:42:17;10.50;65.90
19039;DHT22;9652;49.014;12.052;2024-02-21T04:44:44;10.50;66.00
19039;DHT22;9652;49.014;12.052;2024-02-21T04:47:12;10.50;66.00
19039;DHT22;9652;49.014;12.052;2024-02-21T04:49:39;10.50;66.00
19039;DHT22;9652;49.014;12.052;2024-02-21T04:52:06;10.50;65.90
19039;DHT22;9652;49.014;12.052;2024-02-21T04:54:34;10.50;65.90
19039;DHT22;9652;49.014;12.052;2024-02-21T04:57:01;10.50;65.80
19039;DHT22;9652;49.014;12.052;2024-02-21T04:59:29;10.50;66.00
19039;DHT22;9652;49.014;12.052;2024-02-21T05:01:57;10.50;66.00
19039;DHT22;9652;49.014;12.052;2024-02-21T05:04:24;10.50;66.00
19039;DHT22;9652;49.014;12.052;2024-02-21T05:06:51;10.50;65.80
19039;DHT22;9652;49.014;12.052;2024-02-21T05:09:18;10.50;65.90
19039;DHT22;9652;49.014;12.052;2024-02-21T05:11:45;10.50;65.90
19039;DHT22;9652;49.014;12.052;2024-02-21T05:14:13;10.50;65.90
19039;DHT22;9652;49.014;12.052;2024-02-21T05:16:41;10.50;65.90
19039;DHT22;9652;49.014;12.052;2024-02-21T05:19:08;10.50;65.90
19039;DHT22;9652;49.014;12.052;2024-02-21T05:21:35;10.60;65.90
19039;DHT22;9652;49.014;12.052;2024-02-21T05:24:03;10.60;66.00
19039;DHT22;9652;49.014;12.052;2024-02-21T05:26:31;10.60;65.90
19039;DHT22;9652;49.014;12.052;2024-02-21T05:28:58;10.60;65.90
19039;DHT22;9652;49.014;12.052;2024-02-21T05:31:26;10.60;65.90
19039;DHT22;9652;49.014;12.052;2024-02-21T05:34:11;10.60;65.90
19039;DHT22;9652;49.014;12.052;2024-02-21T05:36:38;10.60;65.80
19039;DHT22;9652;49.014;12.052;2024-02-21T05:39:05;10.60;65.80
19039;DHT22;9652;49.014;12.052;2024-02-21T05:41:32;10.60;65.80
19039;DHT22;9652;49.014;12.052;2024-02-21T05:44:00;10.60;65.80
19039;DHT22;9652;49.014;12.052;2024-02-21T05:46:27;10.60;65.80
19039;DHT22;9652;49.014;12.052;2024-02-21T05:48:54;10.60;65.80
19039;DHT22;9652;49.014;12.052;2024-02-21T05:51:22;10.60;65.70
19039;DHT22;9652;49.014;12.052;2024-02-21T05:53:49;10.60;65.80
19039;DHT22;9652;49.014;12.052;2024-02-21T05:56:17;10.70;65.80
19039;DHT22;9652;49.014;12.052;2024-02-21T05:58:44;10.60;65.80
19039;DHT22;9652;49.014;12.052;2024-02-21T06:01:12;10.70;65.80
19039;DHT22;9652;49.014;12.052;2024-02-21T06:03:39;10.70;65.80
19039;DHT22;9652;49.014;12.052;2024-02-21T06:06:06;10.70;65.80
19039;DHT22;9652;49.014;12.052;2024-02-21T06:08:34;10.70;65.90
19039;DHT22;9652;49.014;12.052;2024-02-21T06:11:01;10.70;65.90
19039;DHT22;9652;49.014;12.052;2024-02-21T06:13:29;10.70;65.90
19039;DHT22;9652;49.014;12.052;2024-02-21T06:15:56;10.70;66.00
19039;DHT22;9652;49.014;12.052;2024-02-21T06:18:23;10.70;65.70
19039;DHT22;9652;49.014;12.052;2024-02-21T06:20:50;10.70;65.60
19039;DHT22;9652;49.014;12.052;2024-02-21T06:23:17;10.70;65.60
19039;DHT22;9652;49.014;12.052;2024-02-21T06:25:46;10.70;66.30
19039;DHT22;9652;49.014;12.052;2024-02-21T06:28:13;10.70;65.50
19039;DHT22;9652;49.014;12.052;2024-02-21T06:30:40;10.70;65.60
19039;DHT22;9652;49.014;12.052;2024-02-21T06:33:07;10.60;65.50
19039;DHT22;9652;49.014;12.052;2024-02-21T06:35:35;10.60;65.50
19039;DHT22;9652;49.014;12.052;2024-02-21T06:38:02;10.70;65.60
19039;DHT22;9652;49.014;12.052;2024-02-21T06:40:29;10.70;65.70
19039;DHT22;9652;49.014;12.052;2024-02-21T06:43:05;10.70;65.60
19039;DHT22;9652;49.014;12.052;2024-02-21T06:45:32;10.70;65.60
19039;DHT22;9652;49.014;12.052;2024-02-21T06:47:59;10.70;65.60
19039;DHT22;9652;49.014;12.052;2024-02-21T06:50:26;10.70;65.60
19039;DHT22;9652;49.014;12.052;2024-02-21T06:52:54;10.70;65.70
19039;DHT22;9652;49.014;12.052;2024-02-21T06:55:21;10.70;65.80
19039;DHT22;9652;49.014;12.052;2024-02-21T06:57:48;10.80;65.70
19039;DHT22;9652;49.014;12.052;2024-02-21T07:00:17;10.80;65.70
19039;DHT22;9652;49.014;12.052;2024-02-21T07:02:45;10.80;65.60
19039;DHT22;9652;49.014;12.052;2024-02-21T07:05:12;10.80;65.50
19039;DHT22;9652;49.014;12.052;2024-02-21T07:07:39;10.80;65.40
19039;DHT22;9652;49.014;12.052;2024-02-21T07:10:07;10.80;65.30
19039;DHT22;9652;49.014;12.052;2024-02-21T07:12:34;10.80;65.40
19039;DHT22;9652;49.014;12.052;2024-02-21T07:15:04;10.80;65.50
19039;DHT22;9652;49.014;12.052;2024-02-21T07:17:33;10.90;65.80
19039;DHT22;9652;49.014;12.052;2024-02-21T07:20:00;10.90;65.80
19039;DHT22;9652;49.014;12.052;2024-02-21T07:22:28;10.90;65.80
19039;DHT22;9652;49.014;12.052;2024-02-21T07:24:55;10.90;65.80
19039;DHT22;9652;49.014;12.052;2024-02-21T07:27:22;10.90;65.80
19039;DHT22;9652;49.014;12.052;2024-02-21T07:29:53;11.00;65.70
19039;DHT22;9652;49.014;12.052;2024-02-21T07:32:20;11.00;65.60
19039;DHT22;9652;49.014;12.052;2024-02-21T07:34:49;11.10;65.60
19039;DHT22;9652;49.014;12.052;2024-02-21T07:37:16;11.10;65.40
19039;DHT22;9652;49.014;12.052;2024-02-21T07:39:43;11.10;65.20
19039;DHT22;9652;49.014;12.052;2024-02-21T07:42:10;11.10;65.00
19039;DHT22;9652;49.014;12.052;2024-02-21T07:44:37;11.20;64.90
19039;DHT22;9652;49.014;12.052;2024-02-21T07:47:04;11.20;64.80
19039;DHT22;9652;49.014;12.052;2024-02-21T07:49:32;11.10;64.60
19039;DHT22;9652;49.014;12.052;2024-02-21T07:52:02;11.10;64.40
19039;DHT22;9652;49.014;12.052;2024-02-21T07:54:30;11.10;64.40
19039;DHT22;9652;49.014;12.052;2024-02-21T07:56:58;11.10;64.40
19039;DHT22;9652;49.014;12.052;2024-02-21T07:59:25;11.10;65.30
19039;DHT22;9652;49.014;12.052;2024-02-21T08:01:56;11.10;64.60
19039;DHT22;9652;49.014;12.052;2024-02-21T08:04:23;11.10;64.70
19039;DHT22;9652;49.014;12.052;2024-02-21T08:06:51;11.10;64.80
19039;DHT22;9652;49.014;12.052;2024-02-21T08:09:22;11.10;64.80
19039;DHT22;9652;49.014;12.052;2024-02-21T08:11:49;11.10;64.80
19039;DHT22;9652;49.014;12.052;2024-02-21T08:14:17;11.10;65.00
19039;DHT22;9652;49.014;12.052;2024-02-21T08:16:44;11.20;65.10
19039;DHT22;9652;49.014;12.052;2024-02-21T08:19:11;11.20;65.00
19039;DHT22;9652;49.014;12.052;2024-02-21T08:21:38;11.20;64.80
19039;DHT22;9652;49.014;12.052;2024-02-21T08:24:06;11.30;64.90
19039;DHT22;9652;49.014;12.052;2024-02-21T08:26:34;11.30;64.90
19039;DHT22;9652;49.014;12.052;2024-02-21T08:29:01;11.30;64.90
19039;DHT22;9652;49.014;12.052;2024-02-21T08:31:28;11.40;64.90
19039;DHT22;9652;49.014;12.052;2024-02-21T08:33:57;11.40;64.90
19039;DHT22;9652;49.014;12.052;2024-02-21T08:36:28;11.50;64.90
19039;DHT22;9652;49.014;12.052;2024-02-21T08:38:55;11.50;65.00
19039;DHT22;9652;49.014;12.052;2024-02-21T08:41:23;11.50;64.90
19039;DHT22;9652;49.014;12.052;2024-02-21T08:43:52;11.60;65.00
19039;DHT22;9652;49.014;12.052;2024-02-21T08:46:20;11.70;65.10
19039;DHT22;9652;49.014;12.052;2024-02-21T08:48:47;11.70;65.10
19039;DHT22;9652;49.014;12.052;2024-02-21T08:51:15;11.80;65.00
19039;DHT22;9652;49.014;12.052;2024-02-21T08:53:42;11.90;65.00
19039;DHT22;9652;49.014;12.052;2024-02-21T08:56:09;12.00;64.90
19039;DHT22;9652;49.014;12.052;2024-02-21T08:58:36;12.10;64.80
19039;DHT22;9652;49.014;12.052;2024-02-21T09:01:05;12.10;64.70
19039;DHT22;9652;49.014;12.052;2024-02-21T09:03:36;12.20;64.80
19039;DHT22;9652;49.014;12.052;2024-02-21T09:06:04;12.30;64.90
19039;DHT22;9652;49.014;12.052;2024-02-21T09:08:32;12.30;64.80
19039;DHT22;9652;49.014;12.052;2024-02-21T09:11:00;12.40;64.80
19039;DHT22;9652;49.014;12.052;2024-02-21T09:13:28;12.50;64.60
19039;DHT22;9652;49.014;12.052;2024-02-21T09:15:55;12.60;64.60
19039;DHT22;9652;49.014;12.052;2024-02-21T09:18:24;12.60;64.60
19039;DHT22;9652;49.014;12.052;2024-02-21T09:20:51;12.70;64.30
19039;DHT22;9652;49.014;12.052;2024-02-21T09:23:18;12.80;64.30
19039;DHT22;9652;49.014;12.052;2024-02-21T09:25:46;12.90;64.10
19039;DHT22;9652;49.014;12.052;2024-02-21T09:28:13;13.00;64.00
19039;DHT22;9652;49.014;12.052;2024-02-21T09:30:40;13.00;63.90
19039;DHT22;9652;49.014;12.052;2024-02-21T09:33:07;13.10;63.70
19039;DHT22;9652;49.014;12.052;2024-02-21T09:35:35;13.20;63.70
19039;DHT22;9652;49.014;12.052;2024-02-21T09:38:03;13.20;63.30
19039;DHT22;9652;49.014;12.052;2024-02-21T09:40:30;13.30;63.40
19039;DHT22;9652;49.014;12.052;2024-02-21T09:43:02;13.30;63.30
19039;DHT22;9652;49.014;12.052;2024-02-21T09:45:33;13.40;63.00
19039;DHT22;9652;49.014;12.052;2024-02-21T09:48:17;13.50;63.20
19039;DHT22;9652;49.014;12.052;2024-02-21T09:50:55;13.60;62.80
19039;DHT22;9652;49.014;12.052;2024-02-21T09:53:24;13.70;63.90
19039;DHT22;9652;49.014;12.052;2024-02-21T09:55:52;13.70;62.90
19039;DHT22;9652;49.014;12.052;2024-02-21T09:58:20;13.80;62.80
19039;DHT22;9652;49.014;12.052;2024-02-21T10:00:49;13.90;62.80
19039;DHT22;9652;49.014;12.052;2024-02-21T10:03:16;14.00;62.70
19039;DHT22;9652;49.014;12.052;2024-02-21T10:05:48;14.00;62.50
19039;DHT22;9652;49.014;12.052;2024-02-21T10:08:18;14.10;62.20
19039;DHT22;9652;49.014;12.052;2024-02-21T10:10:46;14.10;62.10
19039;DHT22;9652;49.014;12.052;2024-02-21T10:13:24;14.20;62.10
19039;DHT22;9652;49.014;12.052;2024-02-21T10:16:03;14.30;61.30
19039;DHT22;9652;49.014;12.052;2024-02-21T10:18:31;14.30;61.10
19039;DHT22;9652;49.014;12.052;2024-02-21T10:21:03;14.40;61.70
19039;DHT22;9652;49.014;12.052;2024-02-21T10:23:48;14.40;61.30
19039;DHT22;9652;49.014;12.052;2024-02-21T10:26:17;14.50;61.00
19039;DHT22;9652;49.014;12.052;2024-02-21T10:28:45;14.60;61.60
19039;DHT22;9652;49.014;12.052;2024-02-21T10:31:22;14.60;61.40
19039;DHT22;9652;49.014;12.052;2024-02-21T10:33:54;14.70;61.00
19039;DHT22;9652;49.014;12.052;2024-02-21T10:36:23;14.70;60.80
19039;DHT22;9652;49.014;12.052;2024-02-21T10:38:53;14.80;60.90
19039;DHT22;9652;49.014;12.052;2024-02-21T10:41:21;14.80;60.60
19039;DHT22;9652;49.014;12.052;2024-02-21T10:43:51;14.90;60.60
19039;DHT22;9652;49.014;12.052;2024-02-21T10:46:21;14.90;60.60
19039;DHT22;9652;49.014;12.052;2024-02-21T10:48:59;15.00;60.80
19039;DHT22;9652;49.014;12.052;2024-02-21T10:51:33;15.10;60.10
19039;DHT22;9652;49.014;12.052;2024-02-21T10:54:15;15.20;60.10
19039;DHT22;9652;49.014;12.052;2024-02-21T10:56:57;15.20;59.60
19039;DHT22;9652;49.014;12.052;2024-02-21T10:59:27;15.30;59.90
19039;DHT22;9652;49.014;12.052;2024-02-21T11:01:55;15.40;59.80
19039;DHT22;9652;49.014;12.052;2024-02-21T11:04:23;15.40;59.80
19039;DHT22;9652;49.014;12.052;2024-02-21T11:06:52;15.60;59.80
19039;DHT22;9652;49.014;12.052;2024-02-21T11:09:29;15.60;59.80
19039;DHT22;9652;49.014;12.052;2024-02-21T11:11:58;15.70;59.10
19039;DHT22;9652;49.014;12.052;2024-02-21T11:14:29;15.80;59.70
19039;DHT22;9652;49.014;12.052;2024-02-21T11:16:58;15.90;59.50
19039;DHT22;9652;49.014;12.052;2024-02-21T11:19:27;16.00;59.70
19039;DHT22;9652;49.014;12.052;2024-02-21T11:21:56;16.00;59.10
19039;DHT22;9652;49.014;12.052;2024-02-21T11:24:29;16.00;59.10
19039;DHT22;9652;49.014;12.052;2024-02-21T11:27:08;16.10;58.80
19039;DHT22;9652;49.014;12.052;2024-02-21T11:29:40;16.20;58.30
19039;DHT22;9652;49.014;12.052;2024-02-21T11:32:09;16.30;58.40
19039;DHT22;9652;49.014;12.052;2024-02-21T11:34:37;16.30;58.70
19039;DHT22;9652;49.014;12.052;2024-02-21T11:37:13;16.30;58.60
19039;DHT22;9652;49.014;12.052;2024-02-21T11:39:43;16.40;58.00
19039;DHT22;9652;49.014;12.052;2024-02-21T11:42:11;16.40;58.20
19039;DHT22;9652;49.014;12.052;2024-02-21T11:44:39;16.40;58.10
19039;DHT22;9652;49.014;12.052;2024-02-21T11:47:08;16.50;58.00
19039;DHT22;9652;49.014;12.052;2024-02-21T11:49:37;16.50;57.80
19039;DHT22;9652;49.014;12.052;2024-02-21T11:52:06;16.50;57.60
19039;DHT22;9652;49.014;12.052;2024-02-21T11:54:33;16.60;57.60
19039;DHT22;9652;49.014;12.052;2024-02-21T11:57:02;16.60;57.40
19039;DHT22;9652;49.014;12.052;2024-02-21T11:59:30;16.60;57.10
19039;DHT22;9652;49.014;12.052;2024-02-21T12:01:59;16.60;57.30
19039;DHT22;9652;49.014;12.052;2024-02-21T12:04:26;16.60;57.10
19039;DHT22;9652;49.014;12.052;2024-02-21T12:06:54;16.70;56.90
19039;DHT22;9652;49.014;12.052;2024-02-21T12:09:24;16.70;56.90
19039;DHT22;9652;49.014;12.052;2024-02-21T12:11:58;16.70;56.80
19039;DHT22;9652;49.014;12.052;2024-02-21T12:14:28;16.80;56.30
19039;DHT22;9652;49.014;12.052;2024-02-21T12:16:57;16.80;56.70
19039;DHT22;9652;49.014;12.052;2024-02-21T12:19:24;16.80;56.70
19039;DHT22;9652;49.014;12.052;2024-02-21T12:21:52;16.90;56.60
19039;DHT22;9652;49.014;12.052;2024-02-21T12:24:22;16.90;56.50
19039;DHT22;9652;49.014;12.052;2024-02-21T12:26:50;17.00;56.40
19039;DHT22;9652;49.014;12.052;2024-02-21T12:29:18;17.10;56.50
19039;DHT22;9652;49.014;12.052;2024-02-21T12:31:47;17.20;56.50
19039;DHT22;9652;49.014;12.052;2024-02-21T12:34:15;17.20;56.50
19039;DHT22;9652;49.014;12.052;2024-02-21T12:36:43;17.30;56.50
19039;DHT22;9652;49.014;12.052;2024-02-21T12:39:13;17.30;56.10
19039;DHT22;9652;49.014;12.052;2024-02-21T12:41:41;17.50;55.90
19039;DHT22;9652;49.014;12.052;2024-02-21T12:44:10;17.60;55.60
19039;DHT22;9652;49.014;12.052;2024-02-21T12:46:38;17.70;55.40
19039;DHT22;9652;49.014;12.052;2024-02-21T12:49:07;17.70;55.10
19039;DHT22;9652;49.014;12.052;2024-02-21T12:51:35;17.80;55.00
19039;DHT22;9652;49.014;12.052;2024-02-21T12:54:02;17.80;54.70
19039;DHT22;9652;49.014;12.052;2024-02-21T12:56:29;17.80;54.50
19039;DHT22;9652;49.014;12.052;2024-02-21T12:58:56;17.80;54.30
19039;DHT22;9652;49.014;12.052;2024-02-21T13:01:24;17.80;54.10
19039;DHT22;9652;49.014;12.052;2024-02-21T13:03:51;17.80;54.10
19039;DHT22;9652;49.014;12.052;2024-02-21T13:06:21;17.80;53.80
19039;DHT22;9652;49.014;12.052;2024-02-21T13:08:48;17.70;53.80
19039;DHT22;9652;49.014;12.052;2024-02-21T13:11:15;17.70;53.90
19039;DHT22;9652;49.014;12.052;2024-02-21T13:13:42;17.70;53.80
19039;DHT22;9652;49.014;12.052;2024-02-21T13:16:09;17.70;53.80
19039;DHT22;9652;49.014;12.052;2024-02-21T13:18:37;17.80;53.80
19039;DHT22;9652;49.014;12.052;2024-02-21T13:21:05;17.60;53.70
19039;DHT22;9652;49.014;12.052;2024-02-21T13:23:34;17.70;53.80
19039;DHT22;9652;49.014;12.052;2024-02-21T13:26:01;17.70;53.40
19039;DHT22;9652;49.014;12.052;2024-02-21T13:28:28;17.70;53.20
19039;DHT22;9652;49.014;12.052;2024-02-21T13:30:55;17.70;53.30
19039;DHT22;9652;49.014;12.052;2024-02-21T13:33:23;17.60;53.50
19039;DHT22;9652;49.014;12.052;2024-02-21T13:35:50;17.60;53.50
19039;DHT22;9652;49.014;12.052;2024-02-21T13:38:17;17.60;53.40
19039;DHT22;9652;49.014;12.052;2024-02-21T13:40:46;17.60;53.30
19039;DHT22;9652;49.014;12.052;2024-02-21T13:43:13;17.60;53.30
19039;DHT22;9652;49.014;12.052;2024-02-21T13:45:39;17.60;53.30
19039;DHT22;9652;49.014;12.052;2024-02-21T13:48:08;17.60;53.20
19039;DHT22;9652;49.014;12.052;2024-02-21T13:50:37;17.50;53.10
19039;DHT22;9652;49.014;12.052;2024-02-21T13:53:08;17.50;53.10
19039;DHT22;9652;49.014;12.052;2024-02-21T13:55:36;17.50;53.10
19039;DHT22;9652;49.014;12.052;2024-02-21T13:58:04;17.50;52.90
19039;DHT22;9652;49.014;12.052;2024-02-21T14:00:31;17.50;52.80
19039;DHT22;9652;49.014;12.052;2024-02-21T14:03:00;17.40;52.90
19039;DHT22;9652;49.014;12.052;2024-02-21T14:05:27;17.40;52.90
19039;DHT22;9652;49.014;12.052;2024-02-21T14:07:55;17.40;52.90
19039;DHT22;9652;49.014;12.052;2024-02-21T14:10:22;17.40;52.90
19039;DHT22;9652;49.014;12.052;2024-02-21T14:12:49;17.40;53.10
19039;DHT22;9652;49.014;12.052;2024-02-21T14:15:18;17.40;53.10
19039;DHT22;9652;49.014;12.052;2024-02-21T14:17:45;17.30;53.00
19039;DHT22;9652;49.014;12.052;2024-02-21T14:20:13;17.40;53.10
19039;DHT22;9652;49.014;12.052;2024-02-21T14:22:41;17.40;53.20
19039;DHT22;9652;49.014;12.052;2024-02-21T14:25:08;17.50;53.10
19039;DHT22;9652;49.014;12.052;2024-02-21T14:27:35;17.50;53.00
19039;DHT22;9652;49.014;12.052;2024-02-21T14:30:03;17.50;53.00
19039;DHT22;9652;49.014;12.052;2024-02-21T14:32:32;17.60;53.00
19039;DHT22;9652;49.014;12.052;2024-02-21T14:35:00;17.60;52.80
19039;DHT22;9652;49.014;12.052;2024-02-21T14:37:27;17.70;52.90
19039;DHT22;9652;49.014;12.052;2024-02-21T14:39:54;17.70;52.80
19039;DHT22;9652;49.014;12.052;2024-02-21T14:42:21;17.70;52.70
19039;DHT22;9652;49.014;12.052;2024-02-21T14:44:48;17.70;52.50
19039;DHT22;9652;49.014;12.052;2024-02-21T14:47:15;17.60;52.50
19039;DHT22;9652;49.014;12.052;2024-02-21T14:49:43;17.80;52.50
19039;DHT22;9652;49.014;12.052;2024-02-21T14:52:10;17.70;52.20
19039;DHT22;9652;49.014;12.052;2024-02-21T14:54:37;17.80;52.20
19039;DHT22;9652;49.014;12.052;2024-02-21T14:57:08;17.70;51.90
19039;DHT22;9652;49.014;12.052;2024-02-21T14:59:35;17.70;51.80
19039;DHT22;9652;49.014;12.052;2024-02-21T15:02:02;17.70;51.80
19039;DHT22;9652;49.014;12.052;2024-02-21T15:04:30;17.60;51.90
19039;DHT22;9652;49.014;12.052;2024-02-21T15:06:59;17.60;51.90
19039;DHT22;9652;49.014;12.052;2024-02-21T15:09:26;17.50;51.80
19039;DHT22;9652;49.014;12.052;2024-02-21T15:11:54;17.50;51.80
19039;DHT22;9652;49.014;12.052;2024-02-21T15:14:21;17.50;51.70
19039;DHT22;9652;49.014;12.052;2024-02-21T15:16:48;17.40;51.70
19039;DHT22;9652;49.014;12.052;2024-02-21T15:19:15;17.40;51.70
19039;DHT22;9652;49.014;12.052;2024-02-21T15:21:42;17.30;51.70
19039;DHT22;9652;49.014;12.052;2024-02-21T15:24:11;17.10;51.60
19039;DHT22;9652;49.014;12.052;2024-02-21T15:26:38;17.10;51.50
19039;DHT22;9652;49.014;12.052;2024-02-21T15:29:05;17.00;51.60
19039;DHT22;9652;49.014;12.052;2024-02-21T15:31:33;16.90;51.60
19039;DHT22;9652;49.014;12.052;2024-02-21T15:34:00;16.90;51.70
19039;DHT22;9652;49.014;12.052;2024-02-21T15:36:27;16.80;51.70